SFF weather

Felts Field
Spokane, Washington, United States

Public forecast

Using degrees Fahrenheit for public forecast. Weather courtesy of forecast.io.

Current aviation weather report (METAR) for Felts Field

Retrieved 2020/07/04 00:53 UTC (12 minutes ago):

KSFF 040053Z 23011G17KT 10SM CLR 27/01 A2996 RMK AO2 SLP134 T02670006

Aviation forecast (TAF) for Felts Field

Retrieved 2020-07-04 00:22 UTC (43 minutes ago):

TAF KSFF 032320Z 0400/0424 23007KT P6SM FEW100 FM040300 VRB03KT P6SM FEW250 FM041400 22005KT P6SM BKN200